Terminal Aerodrome Forecast
Issued by NWS Charleston, WV

Current Version | Previous Version | Graphics & Text | Print | Product List | Glossary On
Versions: 1 2 3 4 5 6 7 8 9 10 11 12 13 14 15 16 17 18 19 20 21 22 23 24 25 26
333
FTUS41 KRLX 270551
TAFHTS
TAF
KHTS 270551Z 2706/2806 11007KT P6SM FEW250
     FM271200 17007KT P6SM BKN200
     FM271500 19008KT P6SM SHRA BKN040
     FM271700 21009KT 5SM SHRA VCTS OVC035CB
     FM271800 21009KT 6SM SHRA VCTS OVC035CB
     FM271900 22009KT P6SM OVC035
     FM280000 26006KT P6SM SCT050
     FM280100 26005KT P6SM SCT250=

USA.gov is the U.S. government's official web portal to all federal, state and local government web resources and services.